Time;durP1;ratioP1;P1;durP2;ratioP2;P2;SDS_P1;SDS_P2;PMS_P1;PMS_P2;Temp;Humidity;BMP_temperature;BMP_pressure;BME280_temperature;BME280_humidity;BME280_pressure;Samples;Min_cycle;Max_cycle;Signal;HPM_P1;HPM_P2
2020/11/09 00:00:08;;;;;;;24.1;15.45;;;;;;;3.56;80.45703;95881.05;;;;
2020/11/09 00:01:11;;;;;;;24.1;15.45;;;;;;;3.56;80.45703;95881.05;;;;
2020/11/09 00:02:11;;;;;;;36.6;16.65;;;;;;;3.42;80.54785;95883.54;;;;
2020/11/09 00:03:12;;;;;;;36.6;16.65;;;;;;;3.42;80.54785;95883.54;;;;
2020/11/09 00:04:13;;;;;;;36.6;16.65;;;;;;;3.42;80.54785;95883.54;;;;
2020/11/09 00:05:14;;;;;;;36.6;16.65;;;;;;;3.42;80.54785;95883.54;;;;
2020/11/09 00:06:15;;;;;;;36.6;16.65;;;;;;;3.42;80.54785;95883.54;;;;
2020/11/09 00:07:16;;;;;;;36.6;16.65;;;;;;;3.42;80.54785;95883.54;;;;
2020/11/09 00:08:17;;;;;;;36.6;16.65;;;;;;;3.42;80.54785;95883.54;;;;
2020/11/09 00:09:17;;;;;;;36.6;16.65;;;;;;;3.42;80.54785;95883.54;;;;
2020/11/09 00:10:18;;;;;;;36.6;16.65;;;;;;;3.42;80.54785;95883.54;;;;
2020/11/09 00:11:18;;;;;;;36.6;16.65;;;;;;;3.42;80.54785;95883.54;;;;
2020/11/09 00:12:19;;;;;;;36.6;16.65;;;;;;;3.42;80.54785;95883.54;;;;
2020/11/09 00:13:19;;;;;;;22.25;15.55;;;;;;;3.4;80.70996;95885.17;;;;
2020/11/09 00:14:20;;;;;;;22.25;15.55;;;;;;;3.4;80.70996;95885.17;;;;
2020/11/09 00:15:22;;;;;;;22.25;15.55;;;;;;;3.4;80.70996;95885.17;;;;
2020/11/09 00:16:22;;;;;;;22.25;15.55;;;;;;;3.4;80.70996;95885.17;;;;
2020/11/09 00:17:23;;;;;;;22.25;15.55;;;;;;;3.4;80.70996;95885.17;;;;
2020/11/09 00:18:23;;;;;;;22.25;15.55;;;;;;;3.4;80.70996;95885.17;;;;
2020/11/09 00:19:24;;;;;;;22.25;15.55;;;;;;;3.4;80.70996;95885.17;;;;
2020/11/09 00:20:24;;;;;;;22.25;15.55;;;;;;;3.4;80.70996;95885.17;;;;
2020/11/09 00:21:25;;;;;;;22.25;15.55;;;;;;;3.4;80.70996;95885.17;;;;
2020/11/09 00:22:26;;;;;;;22.25;15.55;;;;;;;3.4;80.70996;95885.17;;;;
2020/11/09 00:23:27;;;;;;;22.25;15.55;;;;;;;3.4;80.70996;95885.17;;;;
2020/11/09 00:24:27;;;;;;;34.7;16.2;;;;;;;3.39;80.94141;95883;;;;
2020/11/09 00:25:28;;;;;;;34.7;16.2;;;;;;;3.39;80.94141;95883;;;;
2020/11/09 00:26:28;;;;;;;34.7;16.2;;;;;;;3.39;80.94141;95883;;;;
2020/11/09 00:27:29;;;;;;;34.7;16.2;;;;;;;3.39;80.94141;95883;;;;
2020/11/09 00:28:29;;;;;;;34.7;16.2;;;;;;;3.39;80.94141;95883;;;;
2020/11/09 00:29:30;;;;;;;34.7;16.2;;;;;;;3.39;80.94141;95883;;;;
2020/11/09 00:30:30;;;;;;;34.7;16.2;;;;;;;3.39;80.94141;95883;;;;
2020/11/09 00:31:31;;;;;;;34.7;16.2;;;;;;;3.39;80.94141;95883;;;;
2020/11/09 00:32:31;;;;;;;34.7;16.2;;;;;;;3.39;80.94141;95883;;;;
2020/11/09 00:33:32;;;;;;;34.7;16.2;;;;;;;3.39;80.94141;95883;;;;
2020/11/09 00:34:32;;;;;;;41.5;15.85;;;;;;;3.48;80.98926;95886.85;;;;
2020/11/09 00:35:33;;;;;;;41.5;15.85;;;;;;;3.48;80.98926;95886.85;;;;
2020/11/09 00:36:33;;;;;;;41.5;15.85;;;;;;;3.48;80.98926;95886.85;;;;
2020/11/09 00:37:34;;;;;;;41.5;15.85;;;;;;;3.48;80.98926;95886.85;;;;
2020/11/09 00:38:34;;;;;;;41.5;15.85;;;;;;;3.48;80.98926;95886.85;;;;
2020/11/09 00:39:35;;;;;;;41.5;15.85;;;;;;;3.48;80.98926;95886.85;;;;
2020/11/09 00:40:35;;;;;;;41.5;15.85;;;;;;;3.48;80.98926;95886.85;;;;
2020/11/09 00:41:36;;;;;;;41.5;15.85;;;;;;;3.48;80.98926;95886.85;;;;
2020/11/09 00:42:37;;;;;;;41.5;15.85;;;;;;;3.48;80.98926;95886.85;;;;
2020/11/09 00:43:38;;;;;;;41.5;15.85;;;;;;;3.48;80.98926;95886.85;;;;
2020/11/09 00:44:39;;;;;;;41.5;15.85;;;;;;;3.48;80.98926;95886.85;;;;
2020/11/09 00:45:40;;;;;;;21.75;14.75;;;;;;;3.44;81.05566;95873.95;;;;
2020/11/09 00:46:41;;;;;;;21.75;14.75;;;;;;;3.44;81.05566;95873.95;;;;
2020/11/09 00:47:41;;;;;;;21.75;14.75;;;;;;;3.44;81.05566;95873.95;;;;
2020/11/09 00:48:42;;;;;;;21.75;14.75;;;;;;;3.44;81.05566;95873.95;;;;
2020/11/09 00:49:42;;;;;;;21.75;14.75;;;;;;;3.44;81.05566;95873.95;;;;
2020/11/09 00:50:43;;;;;;;21.75;14.75;;;;;;;3.44;81.05566;95873.95;;;;
2020/11/09 00:51:44;;;;;;;21.75;14.75;;;;;;;3.44;81.05566;95873.95;;;;
2020/11/09 00:52:44;;;;;;;21.75;14.75;;;;;;;3.44;81.05566;95873.95;;;;
2020/11/09 00:53:45;;;;;;;21.75;14.75;;;;;;;3.44;81.05566;95873.95;;;;
2020/11/09 00:54:45;;;;;;;21.75;14.75;;;;;;;3.44;81.05566;95873.95;;;;
2020/11/09 00:55:50;;;;;;;18;14.3;;;;;;;3.5;81.51758;95884.42;;;;
2020/11/09 00:56:50;;;;;;;18;14.3;;;;;;;3.5;81.51758;95884.42;;;;
2020/11/09 00:57:51;;;;;;;18;14.3;;;;;;;3.5;81.51758;95884.42;;;;
2020/11/09 00:58:51;;;;;;;18;14.3;;;;;;;3.5;81.51758;95884.42;;;;
2020/11/09 00:59:52;;;;;;;18;14.3;;;;;;;3.5;81.51758;95884.42;;;;
2020/11/09 01:00:52;;;;;;;18;14.3;;;;;;;3.5;81.51758;95884.42;;;;
2020/11/09 01:01:53;;;;;;;18;14.3;;;;;;;3.5;81.51758;95884.42;;;;
2020/11/09 01:02:57;;;;;;;18;14.3;;;;;;;3.5;81.51758;95884.42;;;;
2020/11/09 01:03:57;;;;;;;18;14.3;;;;;;;3.5;81.51758;95884.42;;;;
2020/11/09 01:04:58;;;;;;;18;14.3;;;;;;;3.5;81.51758;95884.42;;;;
2020/11/09 01:05:58;;;;;;;18;14.3;;;;;;;3.5;81.51758;95884.42;;;;
2020/11/09 01:06:59;;;;;;;41.45;12.2;;;;;;;3.44;81.52637;95894.46;;;;
2020/11/09 01:07:59;;;;;;;41.45;12.2;;;;;;;3.44;81.52637;95894.46;;;;
2020/11/09 01:09:00;;;;;;;41.45;12.2;;;;;;;3.44;81.52637;95894.46;;;;
2020/11/09 01:10:06;;;;;;;41.45;12.2;;;;;;;3.44;81.52637;95894.46;;;;
2020/11/09 01:11:07;;;;;;;41.45;12.2;;;;;;;3.44;81.52637;95894.46;;;;
2020/11/09 01:12:08;;;;;;;41.45;12.2;;;;;;;3.44;81.52637;95894.46;;;;
2020/11/09 01:13:09;;;;;;;41.45;12.2;;;;;;;3.44;81.52637;95894.46;;;;
2020/11/09 01:14:10;;;;;;;41.45;12.2;;;;;;;3.44;81.52637;95894.46;;;;
2020/11/09 01:15:10;;;;;;;41.45;12.2;;;;;;;3.44;81.52637;95894.46;;;;
2020/11/09 01:16:11;;;;;;;41.45;12.2;;;;;;;3.44;81.52637;95894.46;;;;
2020/11/09 01:17:12;;;;;;;47.6;12.1;;;;;;;3.32;81.85156;95894.13;;;;
2020/11/09 01:18:12;;;;;;;47.6;12.1;;;;;;;3.32;81.85156;95894.13;;;;
2020/11/09 01:19:13;;;;;;;47.6;12.1;;;;;;;3.32;81.85156;95894.13;;;;
2020/11/09 01:20:14;;;;;;;47.6;12.1;;;;;;;3.32;81.85156;95894.13;;;;
2020/11/09 01:21:14;;;;;;;47.6;12.1;;;;;;;3.32;81.85156;95894.13;;;;
2020/11/09 01:22:15;;;;;;;47.6;12.1;;;;;;;3.32;81.85156;95894.13;;;;
2020/11/09 01:23:15;;;;;;;47.6;12.1;;;;;;;3.32;81.85156;95894.13;;;;
2020/11/09 01:24:31;;;;;;;47.6;12.1;;;;;;;3.32;81.85156;95894.13;;;;
2020/11/09 01:25:31;;;;;;;47.6;12.1;;;;;;;3.32;81.85156;95894.13;;;;
2020/11/09 01:26:32;;;;;;;47.6;12.1;;;;;;;3.32;81.85156;95894.13;;;;
2020/11/09 01:27:33;;;;;;;24.6;10.8;;;;;;;3.19;81.7002;95886.7;;;;
2020/11/09 01:28:33;;;;;;;24.6;10.8;;;;;;;3.19;81.7002;95886.7;;;;
2020/11/09 01:29:35;;;;;;;24.6;10.8;;;;;;;3.19;81.7002;95886.7;;;;
2020/11/09 01:30:35;;;;;;;24.6;10.8;;;;;;;3.19;81.7002;95886.7;;;;
2020/11/09 01:31:36;;;;;;;24.6;10.8;;;;;;;3.19;81.7002;95886.7;;;;
2020/11/09 01:32:38;;;;;;;24.6;10.8;;;;;;;3.19;81.7002;95886.7;;;;
2020/11/09 01:33:39;;;;;;;24.6;10.8;;;;;;;3.19;81.7002;95886.7;;;;
2020/11/09 01:34:40;;;;;;;24.6;10.8;;;;;;;3.19;81.7002;95886.7;;;;
2020/11/09 01:35:40;;;;;;;24.6;10.8;;;;;;;3.19;81.7002;95886.7;;;;
2020/11/09 01:36:41;;;;;;;24.6;10.8;;;;;;;3.19;81.7002;95886.7;;;;
2020/11/09 01:37:41;;;;;;;24.6;10.8;;;;;;;3.19;81.7002;95886.7;;;;
2020/11/09 01:38:42;;;;;;;16.7;11.9;;;;;;;3.17;81.8125;95882.96;;;;
2020/11/09 01:39:42;;;;;;;16.7;11.9;;;;;;;3.17;81.8125;95882.96;;;;
2020/11/09 01:40:43;;;;;;;16.7;11.9;;;;;;;3.17;81.8125;95882.96;;;;
2020/11/09 01:41:43;;;;;;;16.7;11.9;;;;;;;3.17;81.8125;95882.96;;;;
2020/11/09 01:42:44;;;;;;;16.7;11.9;;;;;;;3.17;81.8125;95882.96;;;;
2020/11/09 01:43:44;;;;;;;16.7;11.9;;;;;;;3.17;81.8125;95882.96;;;;
2020/11/09 01:44:45;;;;;;;16.7;11.9;;;;;;;3.17;81.8125;95882.96;;;;
2020/11/09 01:45:48;;;;;;;16.7;11.9;;;;;;;3.17;81.8125;95882.96;;;;
2020/11/09 01:46:53;;;;;;;16.7;11.9;;;;;;;3.17;81.8125;95882.96;;;;
2020/11/09 01:47:54;;;;;;;16.7;11.9;;;;;;;3.17;81.8125;95882.96;;;;
2020/11/09 01:48:55;;;;;;;37.64999;12.95;;;;;;;3.11;81.86426;95870.23;;;;
2020/11/09 01:50:05;;;;;;;37.64999;12.95;;;;;;;3.11;81.86426;95870.23;;;;
2020/11/09 01:51:07;;;;;;;37.64999;12.95;;;;;;;3.11;81.86426;95870.23;;;;
2020/11/09 01:52:10;;;;;;;37.64999;12.95;;;;;;;3.11;81.86426;95870.23;;;;
2020/11/09 01:53:11;;;;;;;37.64999;12.95;;;;;;;3.11;81.86426;95870.23;;;;
2020/11/09 01:54:12;;;;;;;37.64999;12.95;;;;;;;3.11;81.86426;95870.23;;;;
2020/11/09 01:55:12;;;;;;;37.64999;12.95;;;;;;;3.11;81.86426;95870.23;;;;
2020/11/09 01:56:16;;;;;;;37.64999;12.95;;;;;;;3.11;81.86426;95870.23;;;;
2020/11/09 01:57:21;;;;;;;37.64999;12.95;;;;;;;3.11;81.86426;95870.23;;;;
2020/11/09 01:58:22;;;;;;;37.64999;12.95;;;;;;;3.11;81.86426;95870.23;;;;
2020/11/09 01:59:22;;;;;;;37.64999;12.95;;;;;;;3.11;81.86426;95870.23;;;;
2020/11/09 02:00:23;;;;;;;28.75;11.45;;;;;;;3.16;82.20898;95869.31;;;;
2020/11/09 02:01:25;;;;;;;28.75;11.45;;;;;;;3.16;82.20898;95869.31;;;;
2020/11/09 02:02:26;;;;;;;28.75;11.45;;;;;;;3.16;82.20898;95869.31;;;;
2020/11/09 02:03:27;;;;;;;28.75;11.45;;;;;;;3.16;82.20898;95869.31;;;;
2020/11/09 02:04:27;;;;;;;28.75;11.45;;;;;;;3.16;82.20898;95869.31;;;;
2020/11/09 02:05:31;;;;;;;28.75;11.45;;;;;;;3.16;82.20898;95869.31;;;;
2020/11/09 02:06:32;;;;;;;28.75;11.45;;;;;;;3.16;82.20898;95869.31;;;;
2020/11/09 02:07:32;;;;;;;28.75;11.45;;;;;;;3.16;82.20898;95869.31;;;;
2020/11/09 02:08:33;;;;;;;28.75;11.45;;;;;;;3.16;82.20898;95869.31;;;;
2020/11/09 02:09:40;;;;;;;28.75;11.45;;;;;;;3.16;82.20898;95869.31;;;;
2020/11/09 02:10:41;;;;;;;25.55;11.15;;;;;;;3.15;82.37695;95859.55;;;;
2020/11/09 02:11:43;;;;;;;25.55;11.15;;;;;;;3.15;82.37695;95859.55;;;;
2020/11/09 02:12:43;;;;;;;25.55;11.15;;;;;;;3.15;82.37695;95859.55;;;;
2020/11/09 02:13:44;;;;;;;25.55;11.15;;;;;;;3.15;82.37695;95859.55;;;;
2020/11/09 02:14:49;;;;;;;25.55;11.15;;;;;;;3.15;82.37695;95859.55;;;;
2020/11/09 02:15:49;;;;;;;25.55;11.15;;;;;;;3.15;82.37695;95859.55;;;;
2020/11/09 02:16:50;;;;;;;25.55;11.15;;;;;;;3.15;82.37695;95859.55;;;;
2020/11/09 02:17:51;;;;;;;25.55;11.15;;;;;;;3.15;82.37695;95859.55;;;;
2020/11/09 02:18:52;;;;;;;25.55;11.15;;;;;;;3.15;82.37695;95859.55;;;;
2020/11/09 02:19:52;;;;;;;25.55;11.15;;;;;;;3.15;82.37695;95859.55;;;;
2020/11/09 02:20:53;;;;;;;22.9;10.2;;;;;;;3.18;82.7793;95863.3;;;;
2020/11/09 02:21:53;;;;;;;22.9;10.2;;;;;;;3.18;82.7793;95863.3;;;;
2020/11/09 02:22:54;;;;;;;22.9;10.2;;;;;;;3.18;82.7793;95863.3;;;;
2020/11/09 02:23:54;;;;;;;22.9;10.2;;;;;;;3.18;82.7793;95863.3;;;;
2020/11/09 02:24:55;;;;;;;22.9;10.2;;;;;;;3.18;82.7793;95863.3;;;;
2020/11/09 02:25:56;;;;;;;22.9;10.2;;;;;;;3.18;82.7793;95863.3;;;;
2020/11/09 02:26:56;;;;;;;22.9;10.2;;;;;;;3.18;82.7793;95863.3;;;;
2020/11/09 02:27:57;;;;;;;22.9;10.2;;;;;;;3.18;82.7793;95863.3;;;;
2020/11/09 02:28:58;;;;;;;22.9;10.2;;;;;;;3.18;82.7793;95863.3;;;;
2020/11/09 02:30:02;;;;;;;22.9;10.2;;;;;;;3.18;82.7793;95863.3;;;;
2020/11/09 02:31:02;;;;;;;22.9;10.2;;;;;;;3.18;82.7793;95863.3;;;;
2020/11/09 02:32:03;;;;;;;11.95;9.2;;;;;;;3.01;82.88281;95860.8;;;;
2020/11/09 02:33:04;;;;;;;11.95;9.2;;;;;;;3.01;82.88281;95860.8;;;;
2020/11/09 02:34:05;;;;;;;11.95;9.2;;;;;;;3.01;82.88281;95860.8;;;;
2020/11/09 02:35:05;;;;;;;11.95;9.2;;;;;;;3.01;82.88281;95860.8;;;;
2020/11/09 02:36:08;;;;;;;11.95;9.2;;;;;;;3.01;82.88281;95860.8;;;;
2020/11/09 02:37:09;;;;;;;11.95;9.2;;;;;;;3.01;82.88281;95860.8;;;;
2020/11/09 02:38:09;;;;;;;11.95;9.2;;;;;;;3.01;82.88281;95860.8;;;;
2020/11/09 02:39:10;;;;;;;11.95;9.2;;;;;;;3.01;82.88281;95860.8;;;;
2020/11/09 02:40:11;;;;;;;11.95;9.2;;;;;;;3.01;82.88281;95860.8;;;;
2020/11/09 02:41:11;;;;;;;11.95;9.2;;;;;;;3.01;82.88281;95860.8;;;;
2020/11/09 02:42:12;;;;;;;11.45;8.9;;;;;;;2.79;83.23926;95855.75;;;;
2020/11/09 02:43:12;;;;;;;11.45;8.9;;;;;;;2.79;83.23926;95855.75;;;;
2020/11/09 02:44:14;;;;;;;11.45;8.9;;;;;;;2.79;83.23926;95855.75;;;;
2020/11/09 02:45:14;;;;;;;11.45;8.9;;;;;;;2.79;83.23926;95855.75;;;;
2020/11/09 02:46:17;;;;;;;11.45;8.9;;;;;;;2.79;83.23926;95855.75;;;;
2020/11/09 02:47:18;;;;;;;11.45;8.9;;;;;;;2.79;83.23926;95855.75;;;;
2020/11/09 02:48:18;;;;;;;11.45;8.9;;;;;;;2.79;83.23926;95855.75;;;;
2020/11/09 02:49:19;;;;;;;11.45;8.9;;;;;;;2.79;83.23926;95855.75;;;;
2020/11/09 02:50:20;;;;;;;11.45;8.9;;;;;;;2.79;83.23926;95855.75;;;;
2020/11/09 02:51:21;;;;;;;11.45;8.9;;;;;;;2.79;83.23926;95855.75;;;;
2020/11/09 02:52:22;;;;;;;11.45;8.9;;;;;;;2.79;83.23926;95855.75;;;;
2020/11/09 02:53:22;;;;;;;10.65;8.550001;;;;;;;2.45;83.28906;95859.66;;;;
2020/11/09 02:54:24;;;;;;;10.65;8.550001;;;;;;;2.45;83.28906;95859.66;;;;
2020/11/09 02:55:30;;;;;;;10.65;8.550001;;;;;;;2.45;83.28906;95859.66;;;;
2020/11/09 02:56:30;;;;;;;10.65;8.550001;;;;;;;2.45;83.28906;95859.66;;;;
2020/11/09 02:57:31;;;;;;;10.65;8.550001;;;;;;;2.45;83.28906;95859.66;;;;
2020/11/09 02:58:31;;;;;;;10.65;8.550001;;;;;;;2.45;83.28906;95859.66;;;;
2020/11/09 02:59:32;;;;;;;10.65;8.550001;;;;;;;2.45;83.28906;95859.66;;;;
2020/11/09 03:00:33;;;;;;;10.65;8.550001;;;;;;;2.45;83.28906;95859.66;;;;
2020/11/09 03:01:34;;;;;;;10.65;8.550001;;;;;;;2.45;83.28906;95859.66;;;;
2020/11/09 03:02:34;;;;;;;10.65;8.550001;;;;;;;2.45;83.28906;95859.66;;;;
2020/11/09 03:03:35;;;;;;;11.45;8.949999;;;;;;;2.24;83.56055;95859.89;;;;
2020/11/09 03:04:35;;;;;;;11.45;8.949999;;;;;;;2.24;83.56055;95859.89;;;;
2020/11/09 03:05:36;;;;;;;11.45;8.949999;;;;;;;2.24;83.56055;95859.89;;;;
2020/11/09 03:06:37;;;;;;;11.45;8.949999;;;;;;;2.24;83.56055;95859.89;;;;
2020/11/09 03:07:37;;;;;;;11.45;8.949999;;;;;;;2.24;83.56055;95859.89;;;;
2020/11/09 03:08:38;;;;;;;11.45;8.949999;;;;;;;2.24;83.56055;95859.89;;;;
2020/11/09 03:09:38;;;;;;;11.45;8.949999;;;;;;;2.24;83.56055;95859.89;;;;
2020/11/09 03:10:39;;;;;;;11.45;8.949999;;;;;;;2.24;83.56055;95859.89;;;;
2020/11/09 03:11:40;;;;;;;11.45;8.949999;;;;;;;2.24;83.56055;95859.89;;;;
2020/11/09 03:12:40;;;;;;;11.45;8.949999;;;;;;;2.24;83.56055;95859.89;;;;
2020/11/09 03:13:44;;;;;;;11.45;8.949999;;;;;;;2.24;83.56055;95859.89;;;;
2020/11/09 03:14:45;;;;;;;13.7;9.849999;;;;;;;2.05;83.8584;95862.42;;;;
2020/11/09 03:15:45;;;;;;;13.7;9.849999;;;;;;;2.05;83.8584;95862.42;;;;
2020/11/09 03:16:47;;;;;;;13.7;9.849999;;;;;;;2.05;83.8584;95862.42;;;;
2020/11/09 03:17:48;;;;;;;13.7;9.849999;;;;;;;2.05;83.8584;95862.42;;;;
2020/11/09 03:18:52;;;;;;;13.7;9.849999;;;;;;;2.05;83.8584;95862.42;;;;
2020/11/09 03:19:52;;;;;;;13.7;9.849999;;;;;;;2.05;83.8584;95862.42;;;;
2020/11/09 03:20:53;;;;;;;13.7;9.849999;;;;;;;2.05;83.8584;95862.42;;;;
2020/11/09 03:21:53;;;;;;;13.7;9.849999;;;;;;;2.05;83.8584;95862.42;;;;
2020/11/09 03:22:54;;;;;;;13.7;9.849999;;;;;;;2.05;83.8584;95862.42;;;;
2020/11/09 03:23:54;;;;;;;13.7;9.849999;;;;;;;2.05;83.8584;95862.42;;;;
2020/11/09 03:24:55;;;;;;;13.65;9.550001;;;;;;;2.07;83.9668;95874.27;;;;
2020/11/09 03:25:55;;;;;;;13.65;9.550001;;;;;;;2.07;83.9668;95874.27;;;;
2020/11/09 03:26:56;;;;;;;13.65;9.550001;;;;;;;2.07;83.9668;95874.27;;;;
2020/11/09 03:27:57;;;;;;;13.65;9.550001;;;;;;;2.07;83.9668;95874.27;;;;
2020/11/09 03:28:57;;;;;;;13.65;9.550001;;;;;;;2.07;83.9668;95874.27;;;;
2020/11/09 03:29:59;;;;;;;13.65;9.550001;;;;;;;2.07;83.9668;95874.27;;;;
2020/11/09 03:31:00;;;;;;;13.65;9.550001;;;;;;;2.07;83.9668;95874.27;;;;
2020/11/09 03:32:01;;;;;;;13.65;9.550001;;;;;;;2.07;83.9668;95874.27;;;;
2020/11/09 03:33:02;;;;;;;13.65;9.550001;;;;;;;2.07;83.9668;95874.27;;;;
2020/11/09 03:34:03;;;;;;;13.65;9.550001;;;;;;;2.07;83.9668;95874.27;;;;
2020/11/09 03:35:03;;;;;;;13.65;9.550001;;;;;;;2.07;83.9668;95874.27;;;;
2020/11/09 03:36:04;;;;;;;15.2;10.15;;;;;;;2.04;84.2041;95880.75;;;;
2020/11/09 03:37:05;;;;;;;15.2;10.15;;;;;;;2.04;84.2041;95880.75;;;;
2020/11/09 03:38:05;;;;;;;15.2;10.15;;;;;;;2.04;84.2041;95880.75;;;;
2020/11/09 03:39:06;;;;;;;15.2;10.15;;;;;;;2.04;84.2041;95880.75;;;;
2020/11/09 03:40:06;;;;;;;15.2;10.15;;;;;;;2.04;84.2041;95880.75;;;;
2020/11/09 03:41:07;;;;;;;15.2;10.15;;;;;;;2.04;84.2041;95880.75;;;;
2020/11/09 03:42:07;;;;;;;15.2;10.15;;;;;;;2.04;84.2041;95880.75;;;;
2020/11/09 03:43:08;;;;;;;15.2;10.15;;;;;;;2.04;84.2041;95880.75;;;;
2020/11/09 03:44:08;;;;;;;15.2;10.15;;;;;;;2.04;84.2041;95880.75;;;;
2020/11/09 03:45:09;;;;;;;15.2;10.15;;;;;;;2.04;84.2041;95880.75;;;;
2020/11/09 03:46:12;;;;;;;13.45;10.15;;;;;;;2.1;84.35938;95878.33;;;;
2020/11/09 03:47:13;;;;;;;13.45;10.15;;;;;;;2.1;84.35938;95878.33;;;;
2020/11/09 03:48:14;;;;;;;13.45;10.15;;;;;;;2.1;84.35938;95878.33;;;;
2020/11/09 03:49:14;;;;;;;13.45;10.15;;;;;;;2.1;84.35938;95878.33;;;;
2020/11/09 03:50:16;;;;;;;13.45;10.15;;;;;;;2.1;84.35938;95878.33;;;;
2020/11/09 03:51:17;;;;;;;13.45;10.15;;;;;;;2.1;84.35938;95878.33;;;;
2020/11/09 03:52:17;;;;;;;13.45;10.15;;;;;;;2.1;84.35938;95878.33;;;;
2020/11/09 03:53:17;;;;;;;13.45;10.15;;;;;;;2.1;84.35938;95878.33;;;;
2020/11/09 03:54:18;;;;;;;13.45;10.15;;;;;;;2.1;84.35938;95878.33;;;;
2020/11/09 03:55:19;;;;;;;13.45;10.15;;;;;;;2.1;84.35938;95878.33;;;;
2020/11/09 03:56:19;;;;;;;13.45;10.15;;;;;;;2.1;84.35938;95878.33;;;;
2020/11/09 03:57:20;;;;;;;28.9;10.45;;;;;;;2.07;84.21777;95873.33;;;;
2020/11/09 03:58:21;;;;;;;28.9;10.45;;;;;;;2.07;84.21777;95873.33;;;;
2020/11/09 03:59:21;;;;;;;28.9;10.45;;;;;;;2.07;84.21777;95873.33;;;;
2020/11/09 04:00:22;;;;;;;28.9;10.45;;;;;;;2.07;84.21777;95873.33;;;;
2020/11/09 04:01:22;;;;;;;28.9;10.45;;;;;;;2.07;84.21777;95873.33;;;;
2020/11/09 04:02:26;;;;;;;28.9;10.45;;;;;;;2.07;84.21777;95873.33;;;;
2020/11/09 04:03:26;;;;;;;28.9;10.45;;;;;;;2.07;84.21777;95873.33;;;;
2020/11/09 04:04:29;;;;;;;28.9;10.45;;;;;;;2.07;84.21777;95873.33;;;;
2020/11/09 04:05:34;;;;;;;28.9;10.45;;;;;;;2.07;84.21777;95873.33;;;;
2020/11/09 04:06:37;;;;;;;28.9;10.45;;;;;;;2.07;84.21777;95873.33;;;;
2020/11/09 04:07:38;;;;;;;14.3;10.3;;;;;;;1.99;84.17383;95876.86;;;;
2020/11/09 04:08:38;;;;;;;14.3;10.3;;;;;;;1.99;84.17383;95876.86;;;;
2020/11/09 04:09:39;;;;;;;14.3;10.3;;;;;;;1.99;84.17383;95876.86;;;;
2020/11/09 04:10:39;;;;;;;14.3;10.3;;;;;;;1.99;84.17383;95876.86;;;;
2020/11/09 04:11:40;;;;;;;14.3;10.3;;;;;;;1.99;84.17383;95876.86;;;;
2020/11/09 04:12:43;;;;;;;14.3;10.3;;;;;;;1.99;84.17383;95876.86;;;;
2020/11/09 04:13:53;;;;;;;14.3;10.3;;;;;;;1.99;84.17383;95876.86;;;;
2020/11/09 04:14:53;;;;;;;14.3;10.3;;;;;;;1.99;84.17383;95876.86;;;;
2020/11/09 04:15:54;;;;;;;14.3;10.3;;;;;;;1.99;84.17383;95876.86;;;;
2020/11/09 04:16:54;;;;;;;14.3;10.3;;;;;;;1.99;84.17383;95876.86;;;;
2020/11/09 04:17:55;;;;;;;14.3;10.3;;;;;;;1.99;84.17383;95876.86;;;;
2020/11/09 04:18:55;;;;;;;14.8;10.35;;;;;;;1.83;84.37012;95883.12;;;;
2020/11/09 04:19:56;;;;;;;14.8;10.35;;;;;;;1.83;84.37012;95883.12;;;;
2020/11/09 04:20:56;;;;;;;14.8;10.35;;;;;;;1.83;84.37012;95883.12;;;;
2020/11/09 04:21:57;;;;;;;14.8;10.35;;;;;;;1.83;84.37012;95883.12;;;;
2020/11/09 04:22:57;;;;;;;14.8;10.35;;;;;;;1.83;84.37012;95883.12;;;;
2020/11/09 04:23:58;;;;;;;14.8;10.35;;;;;;;1.83;84.37012;95883.12;;;;
2020/11/09 04:24:59;;;;;;;14.8;10.35;;;;;;;1.83;84.37012;95883.12;;;;
2020/11/09 04:25:59;;;;;;;14.8;10.35;;;;;;;1.83;84.37012;95883.12;;;;
2020/11/09 04:26:59;;;;;;;14.8;10.35;;;;;;;1.83;84.37012;95883.12;;;;
2020/11/09 04:28:00;;;;;;;14.8;10.35;;;;;;;1.83;84.37012;95883.12;;;;
2020/11/09 04:29:00;;;;;;;13;9.799999;;;;;;;1.7;84.73047;95883.2;;;;
2020/11/09 04:30:01;;;;;;;13;9.799999;;;;;;;1.7;84.73047;95883.2;;;;
2020/11/09 04:31:02;;;;;;;13;9.799999;;;;;;;1.7;84.73047;95883.2;;;;
2020/11/09 04:32:03;;;;;;;13;9.799999;;;;;;;1.7;84.73047;95883.2;;;;
2020/11/09 04:33:04;;;;;;;13;9.799999;;;;;;;1.7;84.73047;95883.2;;;;
2020/11/09 04:34:04;;;;;;;13;9.799999;;;;;;;1.7;84.73047;95883.2;;;;
2020/11/09 04:35:05;;;;;;;13;9.799999;;;;;;;1.7;84.73047;95883.2;;;;
2020/11/09 04:36:06;;;;;;;13;9.799999;;;;;;;1.7;84.73047;95883.2;;;;
2020/11/09 04:37:07;;;;;;;13;9.799999;;;;;;;1.7;84.73047;95883.2;;;;
2020/11/09 04:38:07;;;;;;;13;9.799999;;;;;;;1.7;84.73047;95883.2;;;;
2020/11/09 04:39:07;;;;;;;13;9.799999;;;;;;;1.7;84.73047;95883.2;;;;
2020/11/09 04:40:09;;;;;;;12.9;9.299999;;;;;;;1.46;84.73438;95895.68;;;;
2020/11/09 04:41:10;;;;;;;12.9;9.299999;;;;;;;1.46;84.73438;95895.68;;;;
2020/11/09 04:42:15;;;;;;;12.9;9.299999;;;;;;;1.46;84.73438;95895.68;;;;
2020/11/09 04:43:16;;;;;;;12.9;9.299999;;;;;;;1.46;84.73438;95895.68;;;;
2020/11/09 04:44:23;;;;;;;12.9;9.299999;;;;;;;1.46;84.73438;95895.68;;;;
2020/11/09 04:45:27;;;;;;;12.9;9.299999;;;;;;;1.46;84.73438;95895.68;;;;
2020/11/09 04:46:31;;;;;;;12.9;9.299999;;;;;;;1.46;84.73438;95895.68;;;;
2020/11/09 04:47:51;;;;;;;12.9;9.299999;;;;;;;1.46;84.73438;95895.68;;;;
2020/11/09 04:49:02;;;;;;;12.9;9.299999;;;;;;;1.46;84.73438;95895.68;;;;
2020/11/09 04:50:12;;;;;;;12.75;9.050002;;;;;;;1.32;85.12402;95898.07;;;;
2020/11/09 04:51:19;;;;;;;12.75;9.050002;;;;;;;1.32;85.12402;95898.07;;;;
2020/11/09 04:52:21;;;;;;;12.75;9.050002;;;;;;;1.32;85.12402;95898.07;;;;
2020/11/09 04:53:24;;;;;;;12.75;9.050002;;;;;;;1.32;85.12402;95898.07;;;;
2020/11/09 04:54:27;;;;;;;12.75;9.050002;;;;;;;1.32;85.12402;95898.07;;;;
2020/11/09 04:55:29;;;;;;;12.75;9.050002;;;;;;;1.32;85.12402;95898.07;;;;
2020/11/09 04:56:32;;;;;;;12.75;9.050002;;;;;;;1.32;85.12402;95898.07;;;;
2020/11/09 04:57:33;;;;;;;12.75;9.050002;;;;;;;1.32;85.12402;95898.07;;;;
2020/11/09 04:58:34;;;;;;;12.75;9.050002;;;;;;;1.32;85.12402;95898.07;;;;
2020/11/09 04:59:34;;;;;;;12.75;9.050002;;;;;;;1.32;85.12402;95898.07;;;;
2020/11/09 05:00:40;;;;;;;12.75;9.050002;;;;;;;1.32;85.12402;95898.07;;;;
2020/11/09 05:01:41;;;;;;;12.4;8.700001;;;;;;;1.1;85.25879;95888.98;;;;
2020/11/09 05:02:42;;;;;;;12.4;8.700001;;;;;;;1.1;85.25879;95888.98;;;;
2020/11/09 05:03:51;;;;;;;12.4;8.700001;;;;;;;1.1;85.25879;95888.98;;;;
2020/11/09 05:04:52;;;;;;;12.4;8.700001;;;;;;;1.1;85.25879;95888.98;;;;
2020/11/09 05:06:10;;;;;;;12.4;8.700001;;;;;;;1.1;85.25879;95888.98;;;;
2020/11/09 05:07:28;;;;;;;12.4;8.700001;;;;;;;1.1;85.25879;95888.98;;;;
2020/11/09 05:08:28;;;;;;;12.4;8.700001;;;;;;;1.1;85.25879;95888.98;;;;
2020/11/09 05:09:31;;;;;;;12.4;8.700001;;;;;;;1.1;85.25879;95888.98;;;;
2020/11/09 05:10:31;;;;;;;12.4;8.700001;;;;;;;1.1;85.25879;95888.98;;;;
2020/11/09 05:11:34;;;;;;;11.55;8.950001;;;;;;;0.98;85.31738;95885.79;;;;
2020/11/09 05:12:47;;;;;;;11.55;8.950001;;;;;;;0.98;85.31738;95885.79;;;;
2020/11/09 05:13:58;;;;;;;11.55;8.950001;;;;;;;0.98;85.31738;95885.79;;;;
2020/11/09 05:14:58;;;;;;;11.55;8.950001;;;;;;;0.98;85.31738;95885.79;;;;
2020/11/09 05:16:05;;;;;;;11.55;8.950001;;;;;;;0.98;85.31738;95885.79;;;;
2020/11/09 05:17:28;;;;;;;11.55;8.950001;;;;;;;0.98;85.31738;95885.79;;;;
2020/11/09 05:18:39;;;;;;;11.55;8.950001;;;;;;;0.98;85.31738;95885.79;;;;
2020/11/09 05:19:40;;;;;;;11.55;8.950001;;;;;;;0.98;85.31738;95885.79;;;;
2020/11/09 05:20:41;;;;;;;11.55;8.950001;;;;;;;0.98;85.31738;95885.79;;;;
2020/11/09 05:21:43;;;;;;;11.55;8.950001;;;;;;;0.98;85.31738;95885.79;;;;
2020/11/09 05:22:55;;;;;;;13.1;9.15;;;;;;;0.82;85.32715;95880.02;;;;
2020/11/09 05:24:18;;;;;;;13.1;9.15;;;;;;;0.82;85.32715;95880.02;;;;
2020/11/09 05:25:32;;;;;;;13.1;9.15;;;;;;;0.82;85.32715;95880.02;;;;
2020/11/09 05:26:33;;;;;;;13.1;9.15;;;;;;;0.82;85.32715;95880.02;;;;
2020/11/09 05:27:38;;;;;;;13.1;9.15;;;;;;;0.82;85.32715;95880.02;;;;
2020/11/09 05:28:38;;;;;;;13.1;9.15;;;;;;;0.82;85.32715;95880.02;;;;
2020/11/09 05:29:41;;;;;;;13.1;9.15;;;;;;;0.82;85.32715;95880.02;;;;
2020/11/09 05:30:47;;;;;;;13.1;9.15;;;;;;;0.82;85.32715;95880.02;;;;
2020/11/09 05:31:59;;;;;;;13.1;9.15;;;;;;;0.82;85.32715;95880.02;;;;
2020/11/09 05:33:31;;;;;;;13.95;9.9;;;;;;;0.74;85.41602;95877.73;;;;
2020/11/09 05:34:31;;;;;;;13.95;9.9;;;;;;;0.74;85.41602;95877.73;;;;
2020/11/09 05:35:32;;;;;;;13.95;9.9;;;;;;;0.74;85.41602;95877.73;;;;
2020/11/09 05:36:32;;;;;;;13.95;9.9;;;;;;;0.74;85.41602;95877.73;;;;
2020/11/09 05:37:34;;;;;;;13.95;9.9;;;;;;;0.74;85.41602;95877.73;;;;
2020/11/09 05:38:42;;;;;;;13.95;9.9;;;;;;;0.74;85.41602;95877.73;;;;
2020/11/09 05:39:43;;;;;;;13.95;9.9;;;;;;;0.74;85.41602;95877.73;;;;
2020/11/09 05:40:49;;;;;;;13.95;9.9;;;;;;;0.74;85.41602;95877.73;;;;
2020/11/09 05:41:56;;;;;;;13.95;9.9;;;;;;;0.74;85.41602;95877.73;;;;
2020/11/09 05:43:11;;;;;;;13.95;9.9;;;;;;;0.74;85.41602;95877.73;;;;
2020/11/09 05:44:22;;;;;;;14.05;9.7;;;;;;;0.61;85.44434;95881.79;;;;
2020/11/09 05:45:23;;;;;;;14.05;9.7;;;;;;;0.61;85.44434;95881.79;;;;
2020/11/09 05:46:24;;;;;;;14.05;9.7;;;;;;;0.61;85.44434;95881.79;;;;
2020/11/09 05:47:39;;;;;;;14.05;9.7;;;;;;;0.61;85.44434;95881.79;;;;
2020/11/09 05:48:44;;;;;;;14.05;9.7;;;;;;;0.61;85.44434;95881.79;;;;